Time;durP1;ratioP1;P1;durP2;ratioP2;P2;SDS_P1;SDS_P2;PMS_P1;PMS_P2;Temp;Humidity;BMP_temperature;BMP_pressure;BME280_temperature;BME280_humidity;BME280_pressure;Samples;Min_cycle;Max_cycle;Signal;HPM_P1;HPM_P2
2022/09/08 00:01:58;;;;;;;56.33;50.45;;;;;;;-146.58;100.00;69501.63;4991911;28;20064;-64
2022/09/08 00:04:23;;;;;;;56.25;50.47;;;;;;;-146.58;100.00;69501.63;4992060;28;20104;-64
2022/09/08 00:06:49;;;;;;;59.67;53.20;;;;;;;-146.58;100.00;69501.63;4993309;28;20026;-63
2022/09/08 00:09:14;;;;;;;56.60;50.72;;;;;;;-146.58;100.00;69501.63;4992019;28;20517;-63
2022/09/08 00:11:40;;;;;;;64.40;56.55;;;;;;;-146.58;100.00;69501.63;4993336;28;20386;-63
2022/09/08 00:14:08;;;;;;;62.88;56.55;;;;;;;-146.58;100.00;69501.63;4992368;28;20046;-63
2022/09/08 00:16:33;;;;;;;66.03;59.15;;;;;;;-146.58;100.00;69501.63;4993202;28;20419;-63
2022/09/08 00:18:59;;;;;;;63.95;57.55;;;;;;;-146.58;100.00;69501.63;4991961;28;20068;-62
2022/09/08 00:21:26;;;;;;;57.95;52.15;;;;;;;-146.58;100.00;69501.63;4993030;28;20022;-62
2022/09/08 00:23:52;;;;;;;60.60;54.42;;;;;;;-146.58;100.00;69501.63;4991345;28;20456;-62
2022/09/08 00:26:19;;;;;;;60.67;54.10;;;;;;;-146.58;100.00;69501.63;4993321;28;20049;-64
2022/09/08 00:28:45;;;;;;;58.67;52.85;;;;;;;-146.58;100.00;69501.63;4991770;28;20030;-62
2022/09/08 00:31:11;;;;;;;67.28;60.40;;;;;;;-146.58;100.00;69501.63;4992553;28;20577;-62
2022/09/08 00:33:36;;;;;;;59.40;53.60;;;;;;;-146.58;100.00;69501.63;4991128;28;20026;-62
2022/09/08 00:36:03;;;;;;;59.63;52.60;;;;;;;-146.58;100.00;69501.63;4992917;28;20034;-62
2022/09/08 00:38:30;;;;;;;56.17;50.63;;;;;;;-146.58;100.00;69501.63;4993167;28;20069;-62
2022/09/08 00:40:56;;;;;;;56.88;50.85;;;;;;;-146.58;100.00;69501.63;4991485;28;20497;-62
2022/09/08 00:43:32;;;;;;;55.80;50.05;;;;;;;-146.58;100.00;69501.63;4993088;28;20149;-62
2022/09/08 00:46:03;;;;;;;54.60;48.70;;;;;;;-146.58;100.00;69501.63;4991305;28;20041;-62
2022/09/08 00:48:30;;;;;;;56.60;50.47;;;;;;;-146.58;100.00;69501.63;4992834;28;20046;-62
2022/09/08 00:50:56;;;;;;;57.35;51.63;;;;;;;-146.58;100.00;69501.63;4991032;28;20062;-63
2022/09/08 00:53:22;;;;;;;56.60;50.38;;;;;;;-146.58;100.00;69501.63;4992116;28;20026;-63
2022/09/08 00:55:47;;;;;;;54.58;49.22;;;;;;;-146.58;100.00;69501.63;4991211;28;20049;-63
2022/09/08 00:58:12;;;;;;;51.33;46.28;;;;;;;-146.58;100.00;69501.63;4992536;28;20038;-65
2022/09/08 01:00:41;;;;;;;56.97;50.95;;;;;;;-146.58;100.00;69501.63;4990739;28;20050;-64
2022/09/08 01:03:09;;;;;;;56.05;50.55;;;;;;;-146.58;100.00;69501.63;4992185;28;20053;-64
2022/09/08 01:06:06;;;;;;;54.15;48.65;;;;;;;-146.58;100.00;69501.63;4990169;28;20126;-64
2022/09/08 01:14:55;;;;;;;51.40;45.92;;;;;;;-146.58;100.00;69501.63;4968825;28;20133;-64
2022/09/08 01:17:24;;;;;;;53.22;47.78;;;;;;;-146.58;100.00;69501.63;4970374;28;20031;-64
2022/09/08 01:19:52;;;;;;;52.72;47.25;;;;;;;-146.58;100.00;69501.63;4970146;28;20045;-64
2022/09/08 01:22:57;;;;;;;54.58;48.92;;;;;;;-146.58;100.00;69501.63;4972631;28;20478;-64
2022/09/08 01:25:48;;;;;;;50.38;45.00;;;;;;;-146.58;100.00;69501.63;4986009;28;20069;-63
2022/09/08 01:28:31;;;;;;;49.28;44.47;;;;;;;-146.58;100.00;69501.63;4992424;28;20038;-64
2022/09/08 01:30:57;;;;;;;52.40;47.33;;;;;;;-146.58;100.00;69501.63;4990091;28;20081;-64
2022/09/08 01:33:22;;;;;;;53.10;47.60;;;;;;;-146.58;100.00;69501.63;4991767;28;20030;-65
2022/09/08 01:35:48;;;;;;;51.20;45.83;;;;;;;-146.58;100.00;69501.63;4990527;28;20580;-64
2022/09/08 01:38:13;;;;;;;55.20;45.72;;;;;;;-146.58;100.00;69501.63;4991876;28;20018;-65
2022/09/08 01:40:39;;;;;;;50.80;45.80;;;;;;;-146.58;100.00;69501.63;4990255;28;20045;-65
2022/09/08 01:43:08;;;;;;;48.47;43.50;;;;;;;-146.58;100.00;69501.63;4991677;28;20034;-65
2022/09/08 01:45:39;;;;;;;49.08;43.90;;;;;;;-146.58;100.00;69501.63;4989902;28;20088;-64
2022/09/08 01:48:05;;;;;;;49.17;44.35;;;;;;;-146.58;100.00;69501.63;4992071;28;20129;-64
2022/09/08 01:50:31;;;;;;;47.22;42.13;;;;;;;-146.58;100.00;69501.63;4990624;28;20121;-64
2022/09/08 01:52:57;;;;;;;46.58;41.90;;;;;;;-146.58;100.00;69501.63;4991004;28;20034;-65
2022/09/08 01:55:22;;;;;;;46.53;41.83;;;;;;;-146.58;100.00;69501.63;4989970;28;20391;-64
2022/09/08 01:57:47;;;;;;;46.15;41.17;;;;;;;-146.58;100.00;69501.63;4992162;28;20075;-65
2022/09/08 02:00:13;;;;;;;48.70;40.60;;;;;;;-146.58;100.00;69501.63;4990118;28;20414;-65
2022/09/08 02:02:39;;;;;;;45.45;41.13;;;;;;;-146.58;100.00;69501.63;4990882;28;20082;-63
2022/09/08 02:05:04;;;;;;;47.20;42.35;;;;;;;-146.58;100.00;69501.63;4990356;28;20097;-64
2022/09/08 02:07:36;;;;;;;47.53;42.58;;;;;;;-146.58;100.00;69501.63;4991555;28;20029;-64
2022/09/08 02:10:02;;;;;;;50.42;45.00;;;;;;;-146.58;100.00;69501.63;4990358;28;20126;-64
2022/09/08 02:12:28;;;;;;;47.30;42.55;;;;;;;-146.58;100.00;69501.63;4991706;28;20030;-64
2022/09/08 02:14:54;;;;;;;45.63;40.78;;;;;;;-146.58;100.00;69501.63;4989607;28;20093;-64
2022/09/08 02:17:19;;;;;;;51.22;46.20;;;;;;;-146.58;100.00;69501.63;4992673;28;20019;-64
2022/09/08 02:19:44;;;;;;;49.97;44.95;;;;;;;-146.58;100.00;69501.63;4993715;28;20045;-64
2022/09/08 02:22:10;;;;;;;47.10;42.33;;;;;;;-146.58;100.00;69501.63;4994994;28;20518;-65
2022/09/08 02:24:37;;;;;;;50.30;39.72;;;;;;;-146.58;100.00;69501.63;4993961;28;20390;-65
2022/09/08 02:27:02;;;;;;;45.80;40.80;;;;;;;-146.58;100.00;69501.63;4995646;28;20023;-64
2022/09/08 02:29:27;;;;;;;44.08;39.38;;;;;;;-146.58;100.00;69501.63;4993830;28;20055;-65
2022/09/08 02:31:53;;;;;;;44.67;40.22;;;;;;;-146.58;100.00;69501.63;4994618;28;20030;-65
2022/09/08 02:34:18;;;;;;;45.92;41.42;;;;;;;-146.58;100.00;69501.63;4994145;28;20533;-65
2022/09/08 02:36:43;;;;;;;44.28;39.38;;;;;;;-146.58;100.00;69501.63;4994886;28;20488;-65
2022/09/08 02:39:17;;;;;;;42.22;37.35;;;;;;;-146.58;100.00;69501.63;4993733;28;20065;-64
2022/09/08 02:41:43;;;;;;;47.40;42.35;;;;;;;-146.58;100.00;69501.63;4994643;28;20030;-64
2022/09/08 02:44:11;;;;;;;45.50;39.28;;;;;;;-146.58;100.00;69501.63;4993514;28;20042;-64
2022/09/08 02:46:38;;;;;;;43.67;39.00;;;;;;;-146.58;100.00;69501.63;4994870;28;20057;-64
2022/09/08 02:49:04;;;;;;;43.70;39.10;;;;;;;-146.58;100.00;69501.63;4993583;28;20056;-64
2022/09/08 02:51:31;;;;;;;41.05;36.63;;;;;;;-146.58;100.00;69501.63;4994729;28;20077;-64
2022/09/08 02:53:56;;;;;;;40.00;36.05;;;;;;;-146.58;100.00;69501.63;4993427;28;20062;-63
2022/09/08 02:56:22;;;;;;;41.33;37.20;;;;;;;-146.58;100.00;69501.63;4995353;28;20092;-64
2022/09/08 02:58:47;;;;;;;39.85;35.50;;;;;;;-146.58;100.00;69501.63;4992760;28;20045;-63
2022/09/08 03:01:13;;;;;;;38.50;34.67;;;;;;;-146.58;100.00;69501.63;4994604;28;20034;-64
2022/09/08 03:03:38;;;;;;;37.35;33.10;;;;;;;-146.58;100.00;69501.63;4993331;28;20038;-63
2022/09/08 03:06:04;;;;;;;38.00;34.28;;;;;;;-146.58;100.00;69501.63;4994463;28;20022;-63
2022/09/08 03:08:30;;;;;;;38.67;34.65;;;;;;;-146.58;100.00;69501.63;4994530;28;20034;-63
2022/09/08 03:10:55;;;;;;;36.63;32.80;;;;;;;-146.58;100.00;69501.63;4992794;28;20041;-63
2022/09/08 03:13:20;;;;;;;37.58;33.45;;;;;;;-146.58;100.00;69501.63;4994664;28;20034;-63
2022/09/08 03:15:46;;;;;;;34.00;30.45;;;;;;;-146.58;100.00;69501.63;4992758;28;20112;-63
2022/09/08 03:18:11;;;;;;;34.38;31.00;;;;;;;-146.58;100.00;69501.63;4994517;28;20469;-63
2022/09/08 03:20:38;;;;;;;53.45;32.55;;;;;;;-146.58;100.00;69501.63;4992414;28;20436;-63
2022/09/08 03:23:04;;;;;;;36.65;32.53;;;;;;;-146.58;100.00;69501.63;4994288;28;20080;-63
2022/09/08 03:25:33;;;;;;;36.40;32.70;;;;;;;-146.58;100.00;69501.63;4993080;28;20039;-63
2022/09/08 03:27:59;;;;;;;33.78;30.63;;;;;;;-146.58;100.00;69501.63;4994201;28;20569;-63
2022/09/08 03:30:24;;;;;;;40.42;31.88;;;;;;;-146.58;100.00;69501.63;4992126;28;20073;-63
2022/09/08 03:32:50;;;;;;;34.65;31.17;;;;;;;-146.58;100.00;69501.63;4993942;28;20026;-63
2022/09/08 03:35:17;;;;;;;36.60;32.75;;;;;;;-146.58;100.00;69501.63;4992950;28;20045;-64
2022/09/08 03:37:43;;;;;;;35.88;32.45;;;;;;;-146.58;100.00;69501.63;4993700;28;20438;-63
2022/09/08 03:40:14;;;;;;;38.05;33.95;;;;;;;-146.58;100.00;69501.63;4992537;28;20077;-63
2022/09/08 03:42:40;;;;;;;35.10;30.10;;;;;;;-146.58;100.00;69501.63;4993872;28;20105;-62
2022/09/08 03:45:09;;;;;;;34.92;31.15;;;;;;;-146.58;100.00;69501.63;4992153;28;20401;-61
2022/09/08 03:47:35;;;;;;;35.63;32.20;;;;;;;-146.58;100.00;69501.63;4993815;28;20417;-61
2022/09/08 03:50:01;;;;;;;39.35;35.25;;;;;;;-146.58;100.00;69501.63;4992425;28;20038;-61
2022/09/08 03:52:27;;;;;;;33.97;30.45;;;;;;;-146.58;100.00;69501.63;4993682;28;20037;-61
2022/09/08 03:54:53;;;;;;;34.35;30.48;;;;;;;-146.58;100.00;69501.63;4991911;28;20042;-61
2022/09/08 03:57:21;;;;;;;34.17;31.02;;;;;;;-146.58;100.00;69501.63;4993953;28;20207;-62
2022/09/08 03:59:47;;;;;;;;;;;;;;;-146.58;100.00;69501.63;4992282;28;20049;-61
2022/09/08 04:02:14;;;;;;;37.30;32.45;;;;;;;-146.58;100.00;69501.63;4992844;28;19913;-61
2022/09/08 04:04:40;;;;;;;36.60;32.78;;;;;;;-146.58;100.00;69501.63;4992259;28;20038;-62
2022/09/08 04:07:05;;;;;;;34.15;30.60;;;;;;;-146.58;100.00;69501.63;4993112;28;20034;-62
2022/09/08 04:09:31;;;;;;;32.85;29.80;;;;;;;-146.58;100.00;69501.63;4992374;28;20049;-62
2022/09/08 04:11:56;;;;;;;33.72;30.63;;;;;;;-146.58;100.00;69501.63;4992856;28;20034;-66
2022/09/08 04:14:21;;;;;;;32.95;29.65;;;;;;;-146.58;100.00;69501.63;4991235;28;20100;-66
2022/09/08 04:16:47;;;;;;;35.40;30.35;;;;;;;-146.58;100.00;69501.63;4992984;28;20474;-66
2022/09/08 04:19:13;;;;;;;33.17;29.95;;;;;;;-146.58;100.00;69501.63;4992104;28;20046;-67
2022/09/08 04:21:38;;;;;;;34.65;31.20;;;;;;;-146.58;100.00;69501.63;4986666;28;20101;-67
2022/09/08 04:24:04;;;;;;;34.72;31.30;;;;;;;-146.58;100.00;69501.63;4984974;28;20093;-67
2022/09/08 04:26:29;;;;;;;34.53;29.80;;;;;;;-146.58;100.00;69501.63;4992899;28;20033;-67
2022/09/08 06:04:39;;;;;;;37.10;31.63;;;;;;;-146.58;100.00;69501.63;4987394;28;20046;-59
2022/09/08 06:07:04;;;;;;;40.88;31.20;;;;;;;-146.58;100.00;69501.63;4991375;28;20034;-59
2022/09/08 06:09:30;;;;;;;41.78;33.15;;;;;;;-146.58;100.00;69501.63;4990223;28;20552;-59
2022/09/08 06:11:55;;;;;;;42.17;32.38;;;;;;;-146.58;100.00;69501.63;4990990;28;20018;-60
2022/09/08 06:14:21;;;;;;;39.90;27.85;;;;;;;-146.58;100.00;69501.63;4991675;28;20053;-59
2022/09/08 06:16:46;;;;;;;32.35;26.73;;;;;;;-146.58;100.00;69501.63;4990272;28;20045;-59
2022/09/08 06:19:12;;;;;;;29.27;26.17;;;;;;;-146.58;100.00;69501.63;4991078;28;20037;-59
2022/09/08 06:21:37;;;;;;;27.95;22.25;;;;;;;-146.58;100.00;69501.63;4990220;28;20042;-59
2022/09/08 06:24:04;;;;;;;26.58;21.45;;;;;;;-146.58;100.00;69501.63;4991604;28;20030;-59
2022/09/08 06:26:55;;;;;;;24.35;17.45;;;;;;;-146.58;100.00;69501.63;4988352;28;20410;-59
2022/09/08 06:29:28;;;;;;;25.58;19.65;;;;;;;-146.58;100.00;69501.63;4990348;28;20053;-59
2022/09/08 06:32:20;;;;;;;26.25;18.30;;;;;;;-146.58;100.00;69501.63;4991217;28;20085;-59
2022/09/08 06:34:51;;;;;;;22.35;16.58;;;;;;;-146.58;100.00;69501.63;4989889;28;20564;-60
2022/09/08 06:37:36;;;;;;;20.73;18.52;;;;;;;-146.58;100.00;69501.63;4991256;28;20034;-59
2022/09/08 06:40:13;;;;;;;23.38;17.65;;;;;;;-146.58;100.00;69501.63;4989842;28;20042;-59
2022/09/08 06:42:53;;;;;;;21.50;17.73;;;;;;;-146.58;100.00;69501.63;4991214;28;20117;-60
2022/09/08 06:45:23;;;;;;;22.48;15.50;;;;;;;-146.58;100.00;69501.63;4989929;28;20042;-60
2022/09/08 06:48:04;;;;;;;28.92;18.63;;;;;;;-146.58;100.00;69501.63;4991091;28;20477;-60
2022/09/08 06:50:33;;;;;;;22.70;16.73;;;;;;;-146.58;100.00;69501.63;4989243;28;20046;-61
2022/09/08 06:53:02;;;;;;;;;;;;;;;-146.58;100.00;69501.63;4991838;28;20113;-59
2022/09/08 06:55:39;;;;;;;22.88;16.02;;;;;;;-146.58;100.00;69501.63;4994397;28;20331;-58
2022/09/08 06:58:20;;;;;;;19.25;14.55;;;;;;;-146.58;100.00;69501.63;4971589;28;20033;-59
2022/09/08 07:00:59;;;;;;;25.27;13.57;;;;;;;-146.58;100.00;69501.63;4980611;28;20038;-59
2022/09/08 07:03:40;;;;;;;17.45;13.38;;;;;;;-146.58;100.00;69501.63;4992271;28;20034;-59
2022/09/08 07:06:08;;;;;;;18.38;12.13;;;;;;;-146.58;100.00;69501.63;4993089;28;20129;-59
2022/09/08 07:09:04;;;;;;;15.60;11.90;;;;;;;-146.58;100.00;69501.63;4993705;28;20084;-60
2022/09/08 07:11:35;;;;;;;16.38;11.50;;;;;;;-146.58;100.00;69501.63;4994551;28;20032;-59
2022/09/08 07:14:36;;;;;;;16.63;11.25;;;;;;;-146.58;100.00;69501.63;4992980;28;20073;-59
2022/09/08 07:17:25;;;;;;;21.58;12.45;;;;;;;-146.58;100.00;69501.63;4994507;28;20058;-59
2022/09/08 07:19:53;;;;;;;16.30;11.23;;;;;;;-146.58;100.00;69501.63;4992458;28;20138;-59
2022/09/08 07:22:31;;;;;;;14.13;11.25;;;;;;;-146.58;100.00;69501.63;4994315;28;20512;-59
2022/09/08 07:25:08;;;;;;;12.18;10.80;;;;;;;-146.58;100.00;69501.63;4992487;28;20046;-60
2022/09/08 07:27:34;;;;;;;15.35;10.10;;;;;;;-146.58;100.00;69501.63;4994141;28;20023;-59
2022/09/08 07:30:03;;;;;;;12.65;9.98;;;;;;;-146.58;100.00;69501.63;5004458;28;20042;-59
2022/09/08 07:32:34;;;;;;;10.77;8.70;;;;;;;-146.58;100.00;69501.63;4998612;28;20066;-59
2022/09/08 07:35:16;;;;;;;11.93;8.23;;;;;;;-146.58;100.00;69501.63;4990249;28;20125;-60
2022/09/08 07:37:47;;;;;;;8.85;7.95;;;;;;;-146.58;100.00;69501.63;4992923;28;20022;-59
2022/09/08 07:40:19;;;;;;;18.58;9.30;;;;;;;-146.58;100.00;69501.63;4990280;28;20383;-59
2022/09/08 07:42:55;;;;;;;13.88;8.20;;;;;;;-146.58;100.00;69501.63;4994033;28;20027;-59
2022/09/08 07:45:46;;;;;;;14.07;8.73;;;;;;;-146.58;100.00;69501.63;4992290;28;20042;-59
2022/09/08 07:48:45;;;;;;;8.32;7.53;;;;;;;-146.58;100.00;69501.63;4993135;28;20030;-60
2022/09/08 07:51:16;;;;;;;10.48;7.30;;;;;;;-146.58;100.00;69501.63;4978754;28;20560;-59
2022/09/08 07:54:09;;;;;;;10.70;6.95;;;;;;;-146.58;100.00;69501.63;4992407;28;20529;-59
2022/09/08 07:57:15;;;;;;;10.43;9.38;;;;;;;-146.58;100.00;69501.63;4993322;28;20034;-59
2022/09/08 07:59:51;;;;;;;12.85;7.90;;;;;;;-146.58;100.00;69501.63;4979699;28;20043;-62
2022/09/08 08:02:22;;;;;;;12.68;8.38;;;;;;;-146.58;100.00;69501.63;4986166;28;20040;-61
2022/09/08 08:05:20;;;;;;;23.65;9.40;;;;;;;-146.58;100.00;69501.63;4983084;28;20057;-59
2022/09/08 08:08:07;;;;;;;10.63;8.80;;;;;;;-146.58;100.00;69501.63;4993564;28;20062;-59
2022/09/08 08:10:50;;;;;;;10.68;7.78;;;;;;;-146.58;100.00;69501.63;4992130;28;20421;-59
2022/09/08 08:13:37;;;;;;;12.00;8.55;;;;;;;-146.58;100.00;69501.63;4990704;28;20034;-59
2022/09/08 08:16:13;;;;;;;10.45;8.27;;;;;;;-146.58;100.00;69501.63;4986988;28;20061;-60
2022/09/08 08:18:52;;;;;;;12.05;8.18;;;;;;;-146.58;100.00;69501.63;4991440;28;20022;-59
2022/09/08 08:21:25;;;;;;;12.35;9.32;;;;;;;-146.58;100.00;69501.63;4993582;28;20082;-60
2022/09/08 08:24:00;;;;;;;9.63;8.70;;;;;;;-146.58;100.00;69501.63;4991674;28;20026;-59
2022/09/08 08:26:37;;;;;;;9.73;7.95;;;;;;;-146.58;100.00;69501.63;4989730;28;20047;-60
2022/09/08 08:29:20;;;;;;;11.60;9.40;;;;;;;-146.58;100.00;69501.63;4989897;28;20042;-59
2022/09/08 08:32:07;;;;;;;17.00;11.20;;;;;;;-146.58;100.00;69501.63;4998411;28;20029;-59
2022/09/08 08:34:40;;;;;;;10.40;9.15;;;;;;;-146.58;100.00;69501.63;4996996;28;20042;-59
2022/09/08 08:37:06;;;;;;;12.52;9.60;;;;;;;-146.58;100.00;69501.63;4979527;28;20421;-59
2022/09/08 08:39:35;;;;;;;14.43;9.98;;;;;;;-146.58;100.00;69501.63;4991304;28;20038;-58
2022/09/08 08:42:03;;;;;;;13.25;9.13;;;;;;;-146.58;100.00;69501.63;4991813;28;20022;-59
2022/09/08 08:45:01;;;;;;;12.23;8.43;;;;;;;-146.58;100.00;69501.63;4991729;28;20042;-59
2022/09/08 08:47:55;;;;;;;11.38;9.38;;;;;;;-146.58;100.00;69501.63;4992433;28;20026;-59
2022/09/08 08:50:46;;;;;;;9.35;8.32;;;;;;;-146.58;100.00;69501.63;4991622;28;20038;-59
2022/09/08 08:53:32;;;;;;;10.50;9.20;;;;;;;-146.58;100.00;69501.63;4991920;28;20034;-59
2022/09/08 08:56:20;;;;;;;10.65;7.22;;;;;;;-146.58;100.00;69501.63;4990839;28;20042;-59
2022/09/08 08:59:06;;;;;;;9.13;7.37;;;;;;;-146.58;100.00;69501.63;4991660;28;20025;-59
2022/09/08 09:01:55;;;;;;;9.13;6.95;;;;;;;-146.58;100.00;69501.63;5002925;28;20483;-59
2022/09/08 09:04:42;;;;;;;12.57;6.95;;;;;;;-146.58;100.00;69501.63;4997418;28;20504;-59
2022/09/08 09:07:28;;;;;;;9.35;8.05;;;;;;;-146.58;100.00;69501.63;5012379;28;20034;-59
2022/09/08 09:10:18;;;;;;;11.10;8.65;;;;;;;-146.58;100.00;69501.63;5010207;28;20585;-59
2022/09/08 09:13:05;;;;;;;13.88;10.05;;;;;;;-146.58;100.00;69501.63;4995473;28;20118;-59
2022/09/08 09:16:03;;;;;;;12.48;9.30;;;;;;;-146.58;100.00;69501.63;4991186;28;20046;-59
2022/09/08 09:18:56;;;;;;;10.13;9.02;;;;;;;-146.58;100.00;69501.63;4991825;28;20065;-59
2022/09/08 09:21:46;;;;;;;11.25;9.57;;;;;;;-146.58;100.00;69501.63;4990496;28;20073;-59
2022/09/08 09:24:34;;;;;;;10.73;9.57;;;;;;;-146.58;100.00;69501.63;4970947;28;20062;-59
2022/09/08 09:27:03;;;;;;;14.00;9.53;;;;;;;-146.58;100.00;69501.63;4971885;28;20150;-59
2022/09/08 09:29:36;;;;;;;10.95;8.98;;;;;;;-146.58;100.00;69501.63;4971430;28;20410;-59
2022/09/08 09:32:17;;;;;;;17.35;12.15;;;;;;;-146.58;100.00;69501.63;4972105;28;20015;-59
2022/09/08 09:34:45;;;;;;;9.80;8.80;;;;;;;-146.58;100.00;69501.63;4971329;28;20043;-59
2022/09/08 09:37:47;;;;;;;12.10;9.98;;;;;;;-146.58;100.00;69501.63;4972471;28;20065;-59
2022/09/08 09:40:34;;;;;;;11.63;9.48;;;;;;;-146.58;100.00;69501.63;4970937;28;20413;-59
2022/09/08 09:43:20;;;;;;;15.13;10.38;;;;;;;-146.58;100.00;69501.63;4982602;28;20034;-59
2022/09/08 09:46:26;;;;;;;13.30;9.43;;;;;;;-146.58;100.00;69501.63;4990169;28;20092;-59
2022/09/08 09:49:41;;;;;;;14.23;10.20;;;;;;;-146.58;100.00;69501.63;4994339;28;20099;-59
2022/09/08 09:52:29;;;;;;;15.45;11.55;;;;;;;-146.58;100.00;69501.63;5011076;28;20032;-59
2022/09/08 09:55:12;;;;;;;13.73;10.18;;;;;;;-146.58;100.00;69501.63;4991238;28;20073;-59
2022/09/08 09:57:55;;;;;;;12.00;10.15;;;;;;;-146.58;100.00;69501.63;4991778;28;20022;-59
2022/09/08 10:00:24;;;;;;;13.00;11.73;;;;;;;-146.58;100.00;69501.63;4990289;28;20053;-60
2022/09/08 10:03:08;;;;;;;13.15;9.32;;;;;;;-146.58;100.00;69501.63;4990994;28;20482;-60
2022/09/08 10:06:24;;;;;;;13.52;11.35;;;;;;;-146.58;100.00;69501.63;4989659;28;20061;-60
2022/09/08 10:08:50;;;;;;;10.40;9.15;;;;;;;-146.58;100.00;69501.63;4984259;28;20057;-60
2022/09/08 10:11:43;;;;;;;10.52;9.57;;;;;;;-146.58;100.00;69501.63;4991800;28;20101;-59
2022/09/08 10:14:24;;;;;;;14.65;10.95;;;;;;;-146.58;100.00;69501.63;4989492;28;20048;-59
2022/09/08 10:17:19;;;;;;;12.65;9.32;;;;;;;-146.58;100.00;69501.63;4991396;28;20464;-60
2022/09/08 10:20:21;;;;;;;26.58;9.23;;;;;;;-146.58;100.00;69501.63;4989795;28;20100;-60
2022/09/08 10:22:59;;;;;;;10.93;9.85;;;;;;;-146.58;100.00;69501.63;4984731;28;20023;-59
2022/09/08 10:25:52;;;;;;;18.25;9.35;;;;;;;-146.58;100.00;69501.63;5003366;28;20057;-60
2022/09/08 10:28:55;;;;;;;10.77;8.70;;;;;;;-146.58;100.00;69501.63;5010633;28;20077;-60
2022/09/08 10:32:01;;;;;;;13.00;8.93;;;;;;;-146.58;100.00;69501.63;5002060;28;20047;-59
2022/09/08 10:34:41;;;;;;;12.27;8.48;;;;;;;-146.58;100.00;69501.63;4983953;28;20038;-61
2022/09/08 10:37:25;;;;;;;9.80;8.80;;;;;;;-146.58;100.00;69501.63;4991211;28;20026;-59
2022/09/08 10:40:11;;;;;;;12.88;11.57;;;;;;;-146.58;100.00;69501.63;4993117;28;20042;-59
2022/09/08 10:42:48;;;;;;;12.18;9.98;;;;;;;-146.58;100.00;69501.63;4995148;28;20081;-60
2022/09/08 10:45:46;;;;;;;13.68;8.88;;;;;;;-146.58;100.00;69501.63;4993276;28;20133;-59
2022/09/08 10:48:29;;;;;;;10.98;6.72;;;;;;;-146.58;100.00;69501.63;4994987;28;20027;-61
2022/09/08 10:51:21;;;;;;;9.35;8.45;;;;;;;-146.58;100.00;69501.63;4993333;28;20563;-61
2022/09/08 10:54:34;;;;;;;13.07;7.38;;;;;;;-146.58;100.00;69501.63;4991942;28;20069;-59
2022/09/08 10:57:06;;;;;;;13.30;9.00;;;;;;;-146.58;100.00;69501.63;4995049;28;20022;-59
2022/09/08 11:00:01;;;;;;;9.57;8.30;;;;;;;-146.58;100.00;69501.63;4993633;28;20124;-59
2022/09/08 11:02:34;;;;;;;10.65;7.85;;;;;;;-146.58;100.00;69501.63;4994970;28;20073;-59
2022/09/08 11:05:18;;;;;;;10.32;9.32;;;;;;;-146.58;100.00;69501.63;4993117;28;20133;-61
2022/09/08 11:07:46;;;;;;;10.77;7.97;;;;;;;-146.58;100.00;69501.63;4994435;28;20026;-61
2022/09/08 11:10:56;;;;;;;10.50;9.50;;;;;;;-146.58;100.00;69501.63;4993258;28;20079;-61
2022/09/08 11:13:29;;;;;;;11.75;9.88;;;;;;;-146.58;100.00;69501.63;4953526;29;20499;-61
2022/09/08 11:16:00;;;;;;;11.20;9.80;;;;;;;-146.58;100.00;69501.63;4986414;28;20151;-61
2022/09/08 11:18:25;;;;;;;13.73;9.00;;;;;;;-146.58;100.00;69501.63;4994931;28;20048;-61
2022/09/08 11:21:03;;;;;;;13.05;9.65;;;;;;;-146.58;100.00;69501.63;4992859;28;20035;-61
2022/09/08 11:23:37;;;;;;;9.70;8.70;;;;;;;-146.58;100.00;69501.63;4994232;28;20022;-59
2022/09/08 11:26:18;;;;;;;15.90;11.70;;;;;;;-146.58;100.00;69501.63;4992919;28;20039;-59
2022/09/08 11:28:49;;;;;;;9.90;9.00;;;;;;;-146.58;100.00;69501.63;4993260;28;20041;-59
2022/09/08 11:31:31;;;;;;;11.93;10.77;;;;;;;-146.58;100.00;69501.63;4994144;28;20638;-59
2022/09/08 11:34:25;;;;;;;14.48;9.32;;;;;;;-146.58;100.00;69501.63;4994110;28;20048;-59
2022/09/08 11:37:12;;;;;;;13.13;10.68;;;;;;;-146.58;100.00;69501.63;4984447;28;20081;-59
2022/09/08 11:39:40;;;;;;;10.68;9.57;;;;;;;-146.58;100.00;69501.63;4992935;28;20386;-59
2022/09/08 11:42:18;;;;;;;12.85;9.38;;;;;;;-146.58;100.00;69501.63;4994040;28;20065;-58
2022/09/08 11:45:39;;;;;;;11.68;10.38;;;;;;;-146.58;100.00;69501.63;4992686;28;20084;-59
2022/09/08 11:48:54;;;;;;;9.00;8.18;;;;;;;-146.58;100.00;69501.63;4971182;28;20050;-59
2022/09/08 11:51:44;;;;;;;9.90;8.77;;;;;;;-146.58;100.00;69501.63;4975217;28;20049;-58
2022/09/08 11:54:20;;;;;;;9.77;8.82;;;;;;;-146.58;100.00;69501.63;4993883;28;20038;-59
2022/09/08 11:57:10;;;;;;;11.43;10.30;;;;;;;-146.58;100.00;69501.63;4992387;28;20042;-58
2022/09/08 12:00:01;;;;;;;9.98;8.82;;;;;;;-146.58;100.00;69501.63;4992366;28;20042;-59
2022/09/08 12:02:49;;;;;;;9.57;8.48;;;;;;;-146.58;100.00;69501.63;4994168;28;20034;-58
2022/09/08 12:05:57;;;;;;;7.60;6.85;;;;;;;-146.58;100.00;69501.63;4992186;28;20517;-59
2022/09/08 12:08:50;;;;;;;7.13;6.53;;;;;;;-146.58;100.00;69501.63;4974323;28;20561;-59
2022/09/08 12:11:35;;;;;;;6.18;5.63;;;;;;;-146.58;100.00;69501.63;4997247;28;20125;-58
2022/09/08 12:14:24;;;;;;;7.13;6.40;;;;;;;-146.58;100.00;69501.63;5012672;28;20439;-59
2022/09/08 12:17:10;;;;;;;8.88;6.78;;;;;;;-146.58;100.00;69501.63;4997606;28;20035;-59
2022/09/08 12:20:07;;;;;;;6.47;5.88;;;;;;;-146.58;100.00;69501.63;4993736;28;20034;-58
2022/09/08 12:22:50;;;;;;;9.15;7.18;;;;;;;-146.58;100.00;69501.63;5012971;28;20018;-59
2022/09/08 12:25:21;;;;;;;6.97;6.32;;;;;;;-146.58;100.00;69501.63;5011731;28;20041;-58
2022/09/08 12:28:05;;;;;;;9.95;6.38;;;;;;;-146.58;100.00;69501.63;5012783;28;20061;-63
2022/09/08 12:30:44;;;;;;;10.48;6.05;;;;;;;-146.58;100.00;69501.63;5011062;28;20408;-58
2022/09/08 12:33:34;;;;;;;9.70;7.07;;;;;;;-146.58;100.00;69501.63;4996532;28;20372;-58
2022/09/08 12:36:41;;;;;;;6.53;5.93;;;;;;;-146.58;100.00;69501.63;4989283;28;20056;-58
2022/09/08 12:39:34;;;;;;;7.82;6.95;;;;;;;-146.58;100.00;69501.63;4989852;28;20046;-58
2022/09/08 12:42:09;;;;;;;7.00;5.72;;;;;;;-146.58;100.00;69501.63;4992124;28;20030;-58
2022/09/08 12:44:58;;;;;;;5.05;4.65;;;;;;;-146.58;100.00;69501.63;4990599;28;20046;-58
2022/09/08 12:47:52;;;;;;;4.88;4.38;;;;;;;-146.58;100.00;69501.63;4992538;28;20030;-57
2022/09/08 12:50:39;;;;;;;16.98;6.63;;;;;;;-146.58;100.00;69501.63;4990892;28;20137;-58
2022/09/08 12:53:04;;;;;;;7.05;5.93;;;;;;;-146.58;100.00;69501.63;4992249;28;20174;-58
2022/09/08 12:55:39;;;;;;;7.57;5.40;;;;;;;-146.58;100.00;69501.63;4991288;28;20133;-58
2022/09/08 12:58:05;;;;;;;4.97;3.78;;;;;;;-146.58;100.00;69501.63;4992630;28;20033;-58
2022/09/08 13:00:50;;;;;;;6.35;4.05;;;;;;;-146.58;100.00;69501.63;4989444;28;20042;-58
2022/09/08 13:03:25;;;;;;;4.70;3.55;;;;;;;-146.58;100.00;69501.63;4993083;28;20026;-58
2022/09/08 13:05:56;;;;;;;7.50;2.38;;;;;;;-146.58;100.00;69501.63;4990442;28;20085;-57
2022/09/08 13:08:44;;;;;;;6.47;2.70;;;;;;;-146.58;100.00;69501.63;4992386;28;20045;-58
2022/09/08 13:11:31;;;;;;;14.57;3.13;;;;;;;-146.58;100.00;69501.63;4990959;28;20050;-58
2022/09/08 13:14:14;;;;;;;3.65;2.00;;;;;;;-146.58;100.00;69501.63;4990692;28;20046;-58
2022/09/08 13:16:48;;;;;;;4.40;2.10;;;;;;;-146.58;100.00;69501.63;4992573;28;20027;-58
2022/09/08 13:19:27;;;;;;;10.18;3.38;;;;;;;-146.58;100.00;69501.63;4990746;28;20053;-57
2022/09/08 13:22:17;;;;;;;4.13;2.60;;;;;;;-146.58;100.00;69501.63;4992064;28;20022;-57
2022/09/08 13:25:09;;;;;;;4.93;2.28;;;;;;;-146.58;100.00;69501.63;4991093;28;20041;-58